Time;durP1;ratioP1;P1;durP2;ratioP2;P2;SDS_P1;SDS_P2;PMS_P1;PMS_P2;Temp;Humidity;BMP_temperature;BMP_pressure;BME280_temperature;BME280_humidity;BME280_pressure;Samples;Min_cycle;Max_cycle;Signal;HPM_P1;HPM_P2
2023/02/14 00:02:24;;;;;;;19.33;1.13;;;;;;;;;;5086902;28;20051;-35
2023/02/14 00:04:51;;;;;;;13.68;1.38;;;;;;;;;;5083814;28;20028;-37
2023/02/14 00:07:18;;;;;;;20.10;1.73;;;;;;;;;;5084493;28;20572;-37
2023/02/14 00:09:45;;;;;;;27.15;1.80;;;;;;;;;;5085163;28;20047;-35
2023/02/14 00:12:12;;;;;;;18.45;2.03;;;;;;;;;;5083099;28;20028;-37
2023/02/14 00:17:24;;;;;;;35.83;2.42;;;;;;;;;;5080146;28;20117;-37
2023/02/14 00:19:51;;;;;;;23.75;2.13;;;;;;;;;;5078334;28;20031;-35
2023/02/14 00:22:18;;;;;;;16.88;1.77;;;;;;;;;;5078661;28;20077;-35
2023/02/14 00:24:46;;;;;;;28.00;2.63;;;;;;;;;;5080025;28;20032;-35
2023/02/14 00:27:14;;;;;;;18.92;1.92;;;;;;;;;;5082281;28;20527;-35
2023/02/14 00:29:41;;;;;;;35.95;2.13;;;;;;;;;;5071932;28;20063;-35
2023/02/14 00:32:07;;;;;;;26.95;2.00;;;;;;;;;;5067308;28;20024;-37
2023/02/14 00:34:35;;;;;;;21.48;2.08;;;;;;;;;;5081455;28;20034;-35
2023/02/14 00:37:02;;;;;;;24.50;2.22;;;;;;;;;;5076768;28;20085;-37
2023/02/14 00:39:29;;;;;;;14.73;1.92;;;;;;;;;;5067220;28;20024;-38
2023/02/14 00:41:56;;;;;;;19.45;2.22;;;;;;;;;;5067510;28;20032;-37
2023/02/14 00:44:24;;;;;;;26.55;2.08;;;;;;;;;;5073160;28;20090;-37
2023/02/14 00:46:51;;;;;;;13.43;1.55;;;;;;;;;;5066727;28;20460;-35
2023/02/14 00:49:18;;;;;;;19.70;1.65;;;;;;;;;;5068345;28;20464;-36
2023/02/14 00:51:45;;;;;;;18.98;2.00;;;;;;;;;;5067046;28;20105;-35
2023/02/14 00:54:12;;;;;;;15.40;1.75;;;;;;;;;;5078060;28;20813;-35
2023/02/14 00:56:39;;;;;;;22.33;1.73;;;;;;;;;;5075544;28;20025;-34
2023/02/14 00:59:05;;;;;;;21.73;1.58;;;;;;;;;;5078046;28;20091;-35
2023/02/14 01:01:32;;;;;;;24.50;1.95;;;;;;;;;;5083825;28;20036;-36
2023/02/14 01:03:59;;;;;;;24.15;1.83;;;;;;;;;;5080001;28;20024;-34
2023/02/14 01:06:26;;;;;;;12.80;1.42;;;;;;;;;;5075886;28;20032;-35
2023/02/14 01:08:54;;;;;;;15.43;1.80;;;;;;;;;;5074339;28;20113;-34
2023/02/14 01:11:22;;;;;;;20.42;1.90;;;;;;;;;;5082177;28;20023;-34
2023/02/14 01:13:49;;;;;;;20.83;2.00;;;;;;;;;;5078513;28;20036;-36
2023/02/14 01:16:18;;;;;;;16.05;1.40;;;;;;;;;;5089432;28;20442;-36
2023/02/14 01:18:45;;;;;;;13.55;1.20;;;;;;;;;;5087392;28;20032;-34
2023/02/14 01:21:18;;;;;;;10.27;1.33;;;;;;;;;;5077586;28;20031;-36
2023/02/14 01:23:45;;;;;;;11.00;1.10;;;;;;;;;;5085461;28;20099;-34
2023/02/14 01:26:12;;;;;;;13.60;1.52;;;;;;;;;;5089365;28;20035;-34
2023/02/14 01:28:40;;;;;;;12.43;1.27;;;;;;;;;;5088994;28;20037;-35
2023/02/14 01:31:11;;;;;;;12.30;1.27;;;;;;;;;;5091025;28;20051;-34
2023/02/14 01:33:39;;;;;;;15.27;1.45;;;;;;;;;;5093581;28;20038;-34
2023/02/14 01:36:06;;;;;;;11.38;1.50;;;;;;;;;;5093703;28;20111;-34
2023/02/14 01:38:33;;;;;;;20.42;2.08;;;;;;;;;;5093006;28;20032;-35
2023/02/14 01:41:00;;;;;;;22.42;1.88;;;;;;;;;;5084484;28;20109;-35
2023/02/14 01:43:27;;;;;;;13.35;1.65;;;;;;;;;;5080186;28;20034;-36
2023/02/14 01:45:54;;;;;;;22.27;1.80;;;;;;;;;;5089241;28;20064;-34
2023/02/14 01:48:22;;;;;;;11.55;1.70;;;;;;;;;;5092635;28;20089;-34
2023/02/14 01:50:49;;;;;;;9.32;2.25;;;;;;;;;;5080088;28;20079;-34
2023/02/14 01:53:22;;;;;;;12.95;3.30;;;;;;;;;;5090926;28;20044;-34
2023/02/14 01:55:51;;;;;;;13.23;3.70;;;;;;;;;;5089957;28;20028;-34
2023/02/14 01:58:21;;;;;;;18.77;3.13;;;;;;;;;;5092897;28;20107;-36
2023/02/14 02:00:57;;;;;;;25.73;3.50;;;;;;;;;;5077819;28;20033;-35
2023/02/14 02:03:25;;;;;;;24.05;4.05;;;;;;;;;;5076860;28;20017;-35
2023/02/14 02:05:55;;;;;;;21.75;3.15;;;;;;;;;;5074342;28;20486;-35
2023/02/14 02:08:22;;;;;;;21.80;3.30;;;;;;;;;;5086543;28;20078;-33
2023/02/14 02:10:49;;;;;;;12.52;2.88;;;;;;;;;;5083459;28;20081;-34
2023/02/14 02:13:17;;;;;;;26.00;2.80;;;;;;;;;;5082969;28;20401;-34
2023/02/14 02:15:50;;;;;;;18.73;2.33;;;;;;;;;;5078888;28;20031;-35
2023/02/14 02:18:23;;;;;;;14.57;2.75;;;;;;;;;;5079179;28;20528;-37
2023/02/14 02:20:50;;;;;;;20.63;2.63;;;;;;;;;;5091295;28;20077;-36
2023/02/14 02:23:35;;;;;;;12.40;2.60;;;;;;;;;;5081835;28;20032;-37
2023/02/14 02:26:02;;;;;;;9.38;2.92;;;;;;;;;;5080711;28;20161;-36
2023/02/14 02:28:47;;;;;;;16.95;4.18;;;;;;;;;;5092920;28;20020;-35
2023/02/14 02:31:29;;;;;;;14.13;4.07;;;;;;;;;;5090592;28;20020;-37
2023/02/14 02:34:14;;;;;;;14.68;3.22;;;;;;;;;;5091728;28;20020;-35
2023/02/14 02:36:48;;;;;;;11.35;2.95;;;;;;;;;;5094150;28;20030;-33
2023/02/14 02:39:18;;;;;;;19.15;2.38;;;;;;;;;;5099747;28;20385;-37
2023/02/14 02:41:48;;;;;;;24.52;2.67;;;;;;;;;;5103745;28;20112;-37
2023/02/14 02:44:21;;;;;;;11.98;1.75;;;;;;;;;;5101027;28;20036;-36
2023/02/14 02:46:48;;;;;;;13.05;1.80;;;;;;;;;;5107724;28;20102;-34
2023/02/14 02:55:11;;;;;;;8.43;1.00;;;;;;;;;;5098426;28;20086;-37
2023/02/14 02:57:40;;;;;;;5.00;0.98;;;;;;;;;;5102839;28;20396;-36
2023/02/14 03:00:09;;;;;;;6.82;0.70;;;;;;;;;;5107249;28;20016;-35
2023/02/14 03:05:32;;;;;;;1.65;0.45;;;;;;;;;;5108362;28;20084;-34
2023/02/14 03:07:59;;;;;;;5.78;0.50;;;;;;;;;;5088839;28;20115;-38
2023/02/14 03:10:30;;;;;;;1.90;0.47;;;;;;;;;;5101566;28;20050;-37
2023/02/14 03:13:12;;;;;;;11.70;0.98;;;;;;;;;;5099660;28;20035;-34
2023/02/14 03:15:47;;;;;;;5.95;0.80;;;;;;;;;;5100523;28;20039;-36
2023/02/14 03:18:14;;;;;;;7.35;0.55;;;;;;;;;;5098736;28;20369;-34
2023/02/14 03:20:49;;;;;;;7.78;0.70;;;;;;;;;;5101764;28;20027;-34
2023/02/14 03:23:19;;;;;;;4.13;0.65;;;;;;;;;;5099656;28;20028;-34
2023/02/14 03:25:49;;;;;;;2.38;0.43;;;;;;;;;;5100860;28;20196;-34
2023/02/14 03:28:28;;;;;;;7.82;0.40;;;;;;;;;;5099636;28;20035;-34
2023/02/14 03:31:01;;;;;;;3.45;0.60;;;;;;;;;;5098467;28;20052;-36
2023/02/14 03:33:46;;;;;;;6.75;0.80;;;;;;;;;;5096329;28;20486;-36
2023/02/14 03:36:20;;;;;;;13.25;0.85;;;;;;;;;;5074317;28;20033;-34
2023/02/14 03:39:02;;;;;;;4.75;0.60;;;;;;;;;;5072013;28;20033;-33
2023/02/14 03:41:32;;;;;;;8.43;0.52;;;;;;;;;;5071676;28;20394;-34
2023/02/14 03:44:03;;;;;;;9.52;0.60;;;;;;;;;;5071920;28;20104;-34
2023/02/14 03:46:34;;;;;;;4.53;0.60;;;;;;;;;;5071774;28;20094;-34
2023/02/14 03:49:04;;;;;;;3.22;0.40;;;;;;;;;;5070933;28;20028;-34
2023/02/14 03:51:35;;;;;;;19.35;0.93;;;;;;;;;;5071371;28;20078;-33
2023/02/14 03:54:02;;;;;;;3.22;0.40;;;;;;;;;;5071779;28;20116;-34
2023/02/14 03:56:58;;;;;;;10.07;0.60;;;;;;;;;;5071783;28;20032;-34
2023/02/14 03:59:27;;;;;;;5.97;0.60;;;;;;;;;;5054865;28;20452;-34
2023/02/14 04:02:06;;;;;;;10.00;0.70;;;;;;;;;;5070158;28;20027;-34
2023/02/14 04:04:35;;;;;;;3.60;0.50;;;;;;;;;;5071590;28;20124;-34
2023/02/14 04:07:09;;;;;;;4.90;0.40;;;;;;;;;;5071432;28;20039;-33
2023/02/14 04:09:36;;;;;;;3.75;0.57;;;;;;;;;;5071430;28;20120;-33
2023/02/14 04:12:03;;;;;;;4.13;0.40;;;;;;;;;;5071290;28;20020;-33
2023/02/14 04:14:30;;;;;;;3.65;0.40;;;;;;;;;;5071442;28;20355;-33
2023/02/14 04:19:42;;;;;;;2.33;0.30;;;;;;;;;;5071394;28;20493;-34
2023/02/14 04:22:09;;;;;;;0.85;0.40;;;;;;;;;;5071203;28;20070;-33
2023/02/14 04:24:36;;;;;;;1.75;0.20;;;;;;;;;;5071312;28;20559;-33
2023/02/14 04:27:09;;;;;;;3.60;0.63;;;;;;;;;;5071161;28;20032;-34
2023/02/14 04:29:37;;;;;;;4.93;0.90;;;;;;;;;;5071022;28;20115;-36
2023/02/14 04:32:05;;;;;;;8.68;1.10;;;;;;;;;;5071150;28;20052;-36
2023/02/14 04:34:32;;;;;;;8.20;1.38;;;;;;;;;;5071158;28;20028;-36
2023/02/14 04:36:59;;;;;;;8.32;1.65;;;;;;;;;;5071176;28;20123;-36
2023/02/14 04:39:26;;;;;;;5.85;1.00;;;;;;;;;;5071157;28;20100;-36
2023/02/14 04:41:53;;;;;;;10.75;1.20;;;;;;;;;;5070993;28;20508;-35
2023/02/14 04:44:20;;;;;;;8.48;1.20;;;;;;;;;;5071029;28;20024;-36
2023/02/14 04:46:47;;;;;;;8.13;0.93;;;;;;;;;;5071029;28;20029;-36
2023/02/14 04:49:14;;;;;;;4.45;0.90;;;;;;;;;;5070860;28;20033;-36
2023/02/14 04:51:41;;;;;;;8.05;0.95;;;;;;;;;;5070565;28;20079;-36
2023/02/14 04:54:08;;;;;;;6.93;1.02;;;;;;;;;;5070910;28;20082;-36
2023/02/14 04:56:35;;;;;;;9.30;1.40;;;;;;;;;;5070944;28;20064;-36
2023/02/14 04:59:02;;;;;;;7.07;1.27;;;;;;;;;;5070833;28;20475;-36
2023/02/14 05:01:29;;;;;;;5.78;1.30;;;;;;;;;;5070420;28;20476;-36
2023/02/14 05:03:56;;;;;;;6.32;1.10;;;;;;;;;;5070696;28;20032;-36
2023/02/14 05:06:23;;;;;;;7.93;1.40;;;;;;;;;;5070734;28;20032;-36
2023/02/14 05:08:50;;;;;;;9.30;1.42;;;;;;;;;;5070629;28;20439;-36
2023/02/14 05:11:17;;;;;;;14.90;1.77;;;;;;;;;;5070619;28;20470;-36
2023/02/14 05:13:44;;;;;;;13.02;1.10;;;;;;;;;;5070501;28;20397;-36
2023/02/14 05:16:11;;;;;;;16.58;1.63;;;;;;;;;;5070649;28;20031;-36
2023/02/14 05:18:38;;;;;;;30.38;2.10;;;;;;;;;;5070719;28;20073;-36
2023/02/14 05:21:05;;;;;;;17.17;2.30;;;;;;;;;;5070687;28;20102;-35
2023/02/14 05:23:32;;;;;;;19.05;1.90;;;;;;;;;;5070636;28;20025;-36
2023/02/14 05:25:59;;;;;;;23.02;2.30;;;;;;;;;;5070637;28;20390;-36
2023/02/14 05:28:26;;;;;;;29.35;2.20;;;;;;;;;;5070449;28;20028;-36
2023/02/14 05:30:55;;;;;;;25.05;2.00;;;;;;;;;;5070533;28;20070;-36
2023/02/14 05:33:22;;;;;;;23.58;2.33;;;;;;;;;;5070379;28;20027;-36
2023/02/14 05:35:49;;;;;;;21.20;2.13;;;;;;;;;;5070513;28;20496;-36
2023/02/14 05:38:16;;;;;;;23.58;2.08;;;;;;;;;;5070290;28;20474;-36
2023/02/14 05:40:43;;;;;;;29.02;2.47;;;;;;;;;;5070474;28;20029;-35
2023/02/14 05:43:10;;;;;;;31.10;1.98;;;;;;;;;;5070475;28;20097;-36
2023/02/14 05:45:37;;;;;;;20.48;1.75;;;;;;;;;;5070407;28;20020;-36
2023/02/14 05:48:05;;;;;;;24.30;2.58;;;;;;;;;;5070445;28;20390;-36
2023/02/14 05:50:32;;;;;;;27.10;2.30;;;;;;;;;;5070022;28;20056;-36
2023/02/14 05:52:59;;;;;;;29.92;2.22;;;;;;;;;;5070311;28;20047;-35
2023/02/14 05:55:26;;;;;;;20.10;2.22;;;;;;;;;;5070425;28;20055;-36
2023/02/14 05:57:52;;;;;;;25.20;1.77;;;;;;;;;;5070381;28;20035;-36
2023/02/14 06:00:20;;;;;;;34.10;2.03;;;;;;;;;;5070372;28;20032;-36
2023/02/14 06:02:47;;;;;;;27.60;1.90;;;;;;;;;;5068545;28;20039;-33
2023/02/14 06:05:16;;;;;;;33.22;2.63;;;;;;;;;;5070082;28;20029;-36
2023/02/14 06:07:49;;;;;;;28.30;2.35;;;;;;;;;;5070029;28;20100;-36
2023/02/14 06:10:17;;;;;;;35.50;2.47;;;;;;;;;;5070264;28;20065;-36
2023/02/14 06:12:44;;;;;;;29.58;1.95;;;;;;;;;;5071294;28;20020;-33
2023/02/14 06:15:11;;;;;;;20.35;2.25;;;;;;;;;;5073676;28;20085;-35
2023/02/14 06:17:38;;;;;;;19.88;1.70;;;;;;;;;;5073660;28;20031;-36
2023/02/14 06:20:05;;;;;;;34.58;2.38;;;;;;;;;;5055618;28;20513;-36
2023/02/14 06:22:32;;;;;;;15.18;1.75;;;;;;;;;;5073636;28;20086;-35
2023/02/14 06:24:59;;;;;;;30.15;2.53;;;;;;;;;;5073404;28;20105;-36
2023/02/14 06:27:26;;;;;;;29.88;1.77;;;;;;;;;;5073515;28;20601;-35
2023/02/14 06:29:53;;;;;;;15.77;1.85;;;;;;;;;;5073514;28;20393;-36
2023/02/14 06:32:20;;;;;;;27.05;2.00;;;;;;;;;;5073199;28;20447;-33
2023/02/14 06:34:47;;;;;;;22.02;1.60;;;;;;;;;;5073351;28;20047;-33
2023/02/14 06:37:14;;;;;;;18.00;1.45;;;;;;;;;;5073309;28;20092;-33
2023/02/14 06:39:41;;;;;;;22.15;1.65;;;;;;;;;;5073359;28;20029;-33
2023/02/14 06:42:08;;;;;;;22.13;2.00;;;;;;;;;;5073167;28;20028;-33
2023/02/14 06:44:35;;;;;;;25.83;1.65;;;;;;;;;;5073192;28;20099;-33
2023/02/14 06:47:03;;;;;;;15.65;1.52;;;;;;;;;;5073102;28;20764;-33
2023/02/14 06:49:30;;;;;;;17.33;1.10;;;;;;;;;;5072878;28;20036;-33
2023/02/14 06:51:57;;;;;;;12.18;1.40;;;;;;;;;;5072814;28;20045;-33
2023/02/14 06:54:24;;;;;;;20.38;1.70;;;;;;;;;;5073023;28;20028;-33
2023/02/14 06:56:51;;;;;;;26.63;1.75;;;;;;;;;;5072986;28;20017;-33
2023/02/14 06:59:18;;;;;;;20.63;1.63;;;;;;;;;;5072854;28;20061;-34
2023/02/14 07:01:45;;;;;;;19.83;1.45;;;;;;;;;;5072890;28;20020;-33
2023/02/14 07:04:12;;;;;;;14.48;1.33;;;;;;;;;;5072773;28;20020;-33
2023/02/14 07:06:39;;;;;;;22.23;1.50;;;;;;;;;;5072625;28;20024;-33
2023/02/14 07:09:06;;;;;;;17.90;1.20;;;;;;;;;;5072601;28;20400;-33
2023/02/14 07:11:33;;;;;;;17.13;1.48;;;;;;;;;;5072581;28;20028;-33
2023/02/14 07:14:00;;;;;;;16.77;1.20;;;;;;;;;;5072587;28;20509;-33
2023/02/14 07:16:27;;;;;;;14.10;1.55;;;;;;;;;;5072604;28;20109;-33
2023/02/14 07:18:54;;;;;;;19.67;1.52;;;;;;;;;;5072583;28;20021;-33
2023/02/14 07:21:21;;;;;;;19.02;1.85;;;;;;;;;;5072416;28;20436;-33
2023/02/14 07:23:48;;;;;;;17.73;1.40;;;;;;;;;;5072323;28;20081;-33
2023/02/14 07:26:17;;;;;;;21.35;1.52;;;;;;;;;;5072425;28;20024;-33
2023/02/14 07:28:44;;;;;;;10.48;2.00;;;;;;;;;;5072454;28;20032;-33
2023/02/14 07:31:12;;;;;;;6.68;1.30;;;;;;;;;;5072122;28;20021;-33
2023/02/14 07:33:39;;;;;;;19.27;1.40;;;;;;;;;;5072303;28;20025;-33
2023/02/14 07:36:07;;;;;;;11.95;1.40;;;;;;;;;;5072059;28;20090;-33
2023/02/14 07:38:34;;;;;;;17.80;1.40;;;;;;;;;;5072112;28;20024;-33
2023/02/14 07:41:01;;;;;;;12.70;1.13;;;;;;;;;;5072091;28;20024;-33
2023/02/14 07:43:28;;;;;;;15.50;1.65;;;;;;;;;;5071988;28;20029;-33
2023/02/14 07:45:55;;;;;;;13.63;1.40;;;;;;;;;;5071943;28;20490;-33
2023/02/14 07:48:22;;;;;;;23.80;1.38;;;;;;;;;;5071835;28;20055;-33
2023/02/14 07:50:49;;;;;;;13.23;1.35;;;;;;;;;;5071489;28;20057;-33
2023/02/14 07:53:16;;;;;;;19.67;1.42;;;;;;;;;;5071862;28;20081;-33
2023/02/14 07:55:43;;;;;;;18.52;1.63;;;;;;;;;;5071862;28;20031;-33
2023/02/14 07:58:10;;;;;;;11.35;1.23;;;;;;;;;;5071668;28;20082;-33
2023/02/14 08:00:37;;;;;;;16.45;1.30;;;;;;;;;;5071577;28;20020;-33
2023/02/14 08:03:04;;;;;;;15.57;1.23;;;;;;;;;;5071652;28;20115;-33
2023/02/14 08:05:31;;;;;;;16.85;1.13;;;;;;;;;;5071653;28;20024;-33
2023/02/14 08:07:58;;;;;;;16.17;1.50;;;;;;;;;;5071452;28;20032;-33
2023/02/14 08:10:25;;;;;;;12.30;1.00;;;;;;;;;;5071342;28;20040;-33
2023/02/14 08:12:57;;;;;;;19.50;1.50;;;;;;;;;;5071400;28;20389;-34
2023/02/14 08:18:11;;;;;;;15.45;1.45;;;;;;;;;;5071741;28;20032;-33
2023/02/14 08:20:38;;;;;;;14.73;1.17;;;;;;;;;;5071214;28;20028;-33
2023/02/14 08:23:05;;;;;;;15.40;1.40;;;;;;;;;;5071313;28;20506;-33
2023/02/14 08:25:32;;;;;;;14.10;1.38;;;;;;;;;;5071292;28;20028;-33
2023/02/14 08:28:01;;;;;;;9.95;1.02;;;;;;;;;;5071144;28;20453;-33
2023/02/14 08:30:28;;;;;;;11.25;1.30;;;;;;;;;;5070983;28;20021;-33
2023/02/14 08:32:55;;;;;;;12.98;1.30;;;;;;;;;;5071197;28;20138;-33
2023/02/14 08:35:22;;;;;;;14.30;1.50;;;;;;;;;;5070555;28;20020;-33
2023/02/14 08:37:49;;;;;;;17.55;1.50;;;;;;;;;;5071079;28;20418;-33
2023/02/14 08:40:16;;;;;;;18.80;1.70;;;;;;;;;;5071035;28;20028;-33
2023/02/14 08:42:43;;;;;;;10.13;1.15;;;;;;;;;;5071090;28;20052;-33
2023/02/14 08:45:10;;;;;;;14.48;1.52;;;;;;;;;;5070994;28;20033;-33
2023/02/14 08:47:37;;;;;;;18.08;1.85;;;;;;;;;;5071056;28;20024;-33
2023/02/14 08:50:05;;;;;;;12.73;1.40;;;;;;;;;;5070604;28;20390;-33
2023/02/14 08:52:32;;;;;;;13.93;1.77;;;;;;;;;;5070873;28;20032;-33
2023/02/14 08:55:00;;;;;;;14.43;2.20;;;;;;;;;;5070943;28;20031;-33
2023/02/14 08:57:27;;;;;;;11.57;3.05;;;;;;;;;;5070750;28;20111;-33
2023/02/14 08:59:54;;;;;;;15.02;3.70;;;;;;;;;;5070873;28;20033;-33
2023/02/14 09:02:21;;;;;;;14.40;3.72;;;;;;;;;;5070575;28;20030;-33
2023/02/14 09:04:48;;;;;;;15.00;3.80;;;;;;;;;;5070727;28;20024;-33
2023/02/14 09:07:15;;;;;;;21.25;4.10;;;;;;;;;;5070778;28;20513;-33
2023/02/14 09:09:42;;;;;;;19.83;3.85;;;;;;;;;;5070799;28;20056;-33
2023/02/14 09:12:10;;;;;;;18.88;4.00;;;;;;;;;;5070613;28;20017;-33
2023/02/14 09:14:37;;;;;;;16.45;4.78;;;;;;;;;;5070742;28;20090;-33
2023/02/14 09:17:04;;;;;;;15.25;3.97;;;;;;;;;;5070560;28;20109;-33
2023/02/14 09:19:32;;;;;;;13.45;4.10;;;;;;;;;;5070740;28;20491;-33
2023/02/14 09:22:00;;;;;;;23.52;4.50;;;;;;;;;;5070637;28;20024;-33
2023/02/14 09:24:27;;;;;;;19.13;3.60;;;;;;;;;;5070721;28;20043;-33
2023/02/14 09:26:56;;;;;;;15.63;4.00;;;;;;;;;;5070519;28;20111;-33
2023/02/14 09:29:23;;;;;;;21.10;4.10;;;;;;;;;;5070376;28;20418;-33
2023/02/14 09:31:54;;;;;;;28.50;4.32;;;;;;;;;;5070424;28;20023;-36
2023/02/14 09:37:06;;;;;;;26.60;4.05;;;;;;;;;;5070609;28;20039;-36
2023/02/14 09:39:33;;;;;;;26.55;3.75;;;;;;;;;;5089647;28;20478;-33
2023/02/14 09:42:10;;;;;;;24.75;4.10;;;;;;;;;;5092947;28;20024;-35
2023/02/14 09:44:40;;;;;;;19.42;3.63;;;;;;;;;;5090575;28;20503;-36
2023/02/14 09:47:20;;;;;;;12.35;2.53;;;;;;;;;;5090590;28;20039;-35
2023/02/14 09:49:47;;;;;;;13.63;2.78;;;;;;;;;;5094390;28;20032;-35
2023/02/14 09:52:16;;;;;;;13.50;2.42;;;;;;;;;;5094361;28;20503;-35
2023/02/14 09:54:45;;;;;;;17.73;2.65;;;;;;;;;;5094486;28;20016;-35
2023/02/14 09:57:23;;;;;;;22.85;2.75;;;;;;;;;;5094371;28;20020;-35
2023/02/14 09:59:57;;;;;;;26.58;2.80;;;;;;;;;;5093998;28;20477;-35
2023/02/14 10:02:24;;;;;;;17.75;2.17;;;;;;;;;;5096621;28;20046;-35
2023/02/14 10:04:57;;;;;;;15.43;2.00;;;;;;;;;;5075876;28;20032;-35
2023/02/14 10:07:39;;;;;;;23.20;2.38;;;;;;;;;;5094211;28;20482;-35
2023/02/14 10:10:09;;;;;;;20.13;2.20;;;;;;;;;;5101855;28;20617;-36
2023/02/14 10:12:36;;;;;;;8.82;1.80;;;;;;;;;;5103824;28;20024;-33
2023/02/14 10:15:07;;;;;;;15.82;1.80;;;;;;;;;;5096666;28;20028;-35
2023/02/14 10:17:38;;;;;;;16.27;1.70;;;;;;;;;;5093554;28;20055;-35
2023/02/14 10:20:14;;;;;;;16.45;1.88;;;;;;;;;;5093827;28;20381;-35
2023/02/14 10:22:54;;;;;;;27.52;2.72;;;;;;;;;;5093773;28;20758;-35
2023/02/14 10:25:25;;;;;;;21.55;2.40;;;;;;;;;;5093725;28;20028;-36
2023/02/14 10:27:53;;;;;;;10.50;1.98;;;;;;;;;;5077710;28;20024;-33
2023/02/14 10:30:21;;;;;;;18.70;2.10;;;;;;;;;;5078867;28;20070;-35
2023/02/14 10:32:51;;;;;;;18.08;2.35;;;;;;;;;;5090269;28;20066;-35
2023/02/14 10:35:21;;;;;;;24.20;2.40;;;;;;;;;;5093418;28;20037;-36
2023/02/14 10:37:57;;;;;;;13.38;2.15;;;;;;;;;;5093165;28;20032;-33
2023/02/14 10:40:41;;;;;;;43.03;3.70;;;;;;;;;;5083405;28;20024;-33
2023/02/14 10:43:18;;;;;;;31.27;3.35;;;;;;;;;;5088670;28;20024;-35
2023/02/14 10:45:53;;;;;;;20.58;2.50;;;;;;;;;;5100167;28;20065;-36
2023/02/14 10:48:28;;;;;;;32.05;2.45;;;;;;;;;;5093353;28;20088;-36
2023/02/14 10:51:10;;;;;;;29.10;2.80;;;;;;;;;;5092983;28;20125;-36
2023/02/14 10:53:44;;;;;;;18.27;1.97;;;;;;;;;;5093224;28;20027;-36
2023/02/14 10:56:14;;;;;;;23.42;2.70;;;;;;;;;;5093271;28;20024;-36
2023/02/14 10:58:42;;;;;;;20.67;2.30;;;;;;;;;;5092737;28;20016;-35
2023/02/14 11:01:16;;;;;;;20.60;2.35;;;;;;;;;;5093028;28;20020;-36
2023/02/14 11:04:05;;;;;;;17.02;1.77;;;;;;;;;;5092896;28;20107;-35
2023/02/14 11:06:33;;;;;;;20.30;2.15;;;;;;;;;;5092895;28;20056;-35
2023/02/14 11:09:00;;;;;;;16.50;2.00;;;;;;;;;;5092391;28;20116;-32
2023/02/14 11:11:32;;;;;;;12.75;1.90;;;;;;;;;;5087560;28;20028;-33
2023/02/14 11:13:59;;;;;;;27.38;2.25;;;;;;;;;;5091739;28;20032;-36
2023/02/14 11:16:29;;;;;;;20.27;1.80;;;;;;;;;;5098823;28;20036;-37
2023/02/14 11:19:13;;;;;;;24.33;2.47;;;;;;;;;;5096810;28;20385;-32
2023/02/14 11:21:42;;;;;;;39.10;2.72;;;;;;;;;;5100578;28;20095;-33
2023/02/14 11:24:19;;;;;;;33.60;1.98;;;;;;;;;;5090409;28;20485;-37
2023/02/14 11:28:43;;;;;;;424.05;24.40;;;;;;;;;;5087366;27;20427;-41
2023/02/14 11:31:10;;;;;;;203.13;11.57;;;;;;;;;;5084970;28;20032;-37
2023/02/14 11:33:39;;;;;;;21.52;3.13;;;;;;;;;;5087661;28;20037;-38
2023/02/14 11:36:11;;;;;;;43.40;3.72;;;;;;;;;;5088228;28;20032;-38
2023/02/14 11:38:39;;;;;;;16.35;2.40;;;;;;;;;;5088046;28;20074;-38
2023/02/14 11:41:09;;;;;;;16.00;2.08;;;;;;;;;;5087934;28;20025;-38
2023/02/14 11:43:43;;;;;;;39.40;2.13;;;;;;;;;;5087839;28;20032;-36
2023/02/14 11:46:15;;;;;;;27.77;2.08;;;;;;;;;;5087873;28;20067;-40
2023/02/14 11:49:08;;;;;;;10.23;1.20;;;;;;;;;;5087852;28;20028;-39
2023/02/14 11:51:42;;;;;;;28.15;1.92;;;;;;;;;;5086527;28;20401;-40
2023/02/14 11:54:35;;;;;;;38.63;3.70;;;;;;;;;;5087652;28;20078;-39
2023/02/14 11:57:04;;;;;;;29.02;2.17;;;;;;;;;;5086776;28;20045;-41
2023/02/14 11:59:45;;;;;;;366.83;30.55;;;;;;;;;;5087550;28;20040;-40
2023/02/14 12:02:31;;;;;;;51.83;5.43;;;;;;;;;;5087620;28;20021;-39
2023/02/14 12:05:19;;;;;;;19.33;1.58;;;;;;;;;;5087580;28;20039;-40
2023/02/14 12:07:47;;;;;;;14.57;1.50;;;;;;;;;;5087187;28;20446;-40
2023/02/14 12:10:14;;;;;;;15.43;1.50;;;;;;;;;;5087470;28;20033;-39
2023/02/14 12:13:01;;;;;;;7.82;1.30;;;;;;;;;;5087468;28;20039;-39
2023/02/14 12:15:28;;;;;;;23.23;1.60;;;;;;;;;;5083357;28;20125;-39
2023/02/14 12:18:21;;;;;;;19.67;1.80;;;;;;;;;;5087316;28;20107;-40
2023/02/14 12:20:53;;;;;;;32.90;2.85;;;;;;;;;;5085983;28;20405;-39
2023/02/14 12:23:38;;;;;;;45.17;2.90;;;;;;;;;;5087337;28;20438;-41
2023/02/14 12:26:25;;;;;;;21.00;1.50;;;;;;;;;;5087205;28;20732;-40
2023/02/14 12:28:58;;;;;;;12.52;1.73;;;;;;;;;;5083172;28;20136;-40
2023/02/14 12:31:25;;;;;;;17.42;2.00;;;;;;;;;;5087172;28;20032;-40
2023/02/14 12:33:52;;;;;;;30.20;2.03;;;;;;;;;;5087081;28;20028;-40
2023/02/14 12:36:31;;;;;;;19.30;1.95;;;;;;;;;;5086940;28;20069;-41
2023/02/14 12:39:04;;;;;;;22.42;1.58;;;;;;;;;;5078946;28;20031;-40
2023/02/14 12:41:31;;;;;;;22.35;2.05;;;;;;;;;;5073186;28;20020;-41
2023/02/14 12:44:01;;;;;;;24.33;2.13;;;;;;;;;;5073374;28;20052;-42
2023/02/14 12:46:31;;;;;;;18.02;1.80;;;;;;;;;;5067318;28;20143;-45
2023/02/14 12:49:21;;;;;;;12.25;1.23;;;;;;;;;;5071016;28;20032;-45
2023/02/14 12:51:49;;;;;;;11.98;1.45;;;;;;;;;;5071776;28;20062;-43
2023/02/14 12:54:34;;;;;;;16.33;1.65;;;;;;;;;;5071411;28;20106;-43
2023/02/14 12:57:13;;;;;;;19.00;1.95;;;;;;;;;;5072808;28;20039;-37
2023/02/14 13:00:19;;;;;;;13.63;1.52;;;;;;;;;;5072884;28;20028;-40
2023/02/14 13:03:02;;;;;;;19.80;1.67;;;;;;;;;;5048268;28;20043;-41
2023/02/14 13:05:38;;;;;;;20.60;1.60;;;;;;;;;;5048493;28;20065;-45
2023/02/14 13:08:23;;;;;;;19.52;1.70;;;;;;;;;;5064650;28;20040;-43
2023/02/14 13:10:50;;;;;;;16.70;1.77;;;;;;;;;;5072143;28;20028;-43
2023/02/14 13:13:39;;;;;;;16.48;2.10;;;;;;;;;;5070819;28;20483;-42
2023/02/14 13:16:12;;;;;;;9.65;1.25;;;;;;;;;;5071349;28;20494;-44
2023/02/14 13:18:48;;;;;;;22.55;1.70;;;;;;;;;;5072697;28;20032;-42
2023/02/14 13:21:17;;;;;;;20.13;2.20;;;;;;;;;;5072150;28;20032;-41
2023/02/14 13:23:46;;;;;;;19.60;1.80;;;;;;;;;;5071246;28;20037;-40
2023/02/14 13:26:13;;;;;;;8.52;1.23;;;;;;;;;;5070621;28;20037;-40
2023/02/14 13:28:45;;;;;;;17.40;1.10;;;;;;;;;;5072303;28;20049;-40
2023/02/14 13:31:13;;;;;;;16.33;1.52;;;;;;;;;;5072326;28;20028;-42
2023/02/14 13:33:43;;;;;;;16.73;1.75;;;;;;;;;;5070821;28;20037;-41
2023/02/14 13:36:12;;;;;;;15.65;1.70;;;;;;;;;;5072044;28;20063;-41
2023/02/14 13:38:53;;;;;;;11.57;1.15;;;;;;;;;;5069681;28;20036;-43
2023/02/14 13:41:20;;;;;;;10.18;1.42;;;;;;;;;;5071950;28;20032;-41
2023/02/14 13:43:49;;;;;;;15.48;1.08;;;;;;;;;;5071652;28;20033;-41
2023/02/14 13:46:18;;;;;;;12.35;1.40;;;;;;;;;;5071682;28;20028;-41
2023/02/14 13:48:55;;;;;;;24.65;1.58;;;;;;;;;;5072058;28;20052;-41
2023/02/14 13:51:42;;;;;;;25.27;2.35;;;;;;;;;;5070974;28;20123;-41
2023/02/14 13:54:24;;;;;;;19.08;1.45;;;;;;;;;;5072072;28;20026;-41
2023/02/14 13:56:51;;;;;;;32.50;1.65;;;;;;;;;;5072040;28;20087;-41
2023/02/14 13:59:29;;;;;;;23.00;2.20;;;;;;;;;;5070734;28;20486;-42
2023/02/14 14:02:16;;;;;;;34.38;2.45;;;;;;;;;;5071387;28;20103;-43
2023/02/14 14:04:43;;;;;;;25.67;2.55;;;;;;;;;;5070152;28;20490;-41
2023/02/14 14:07:17;;;;;;;21.55;1.85;;;;;;;;;;5071579;28;20111;-41
2023/02/14 14:09:44;;;;;;;23.83;2.05;;;;;;;;;;5070449;28;20063;-42
2023/02/14 14:12:23;;;;;;;23.42;2.20;;;;;;;;;;5071560;28;20102;-42
2023/02/14 14:15:05;;;;;;;22.30;2.00;;;;;;;;;;5071610;28;20474;-42
2023/02/14 14:17:43;;;;;;;38.80;2.15;;;;;;;;;;5071482;28;20036;-42
2023/02/14 14:20:17;;;;;;;17.63;2.22;;;;;;;;;;5071019;28;20034;-43
2023/02/14 14:22:51;;;;;;;19.08;1.30;;;;;;;;;;5071297;28;20433;-42
2023/02/14 14:25:31;;;;;;;17.50;1.50;;;;;;;;;;5071289;28;20048;-42
2023/02/14 14:27:58;;;;;;;15.30;1.55;;;;;;;;;;5070957;28;20049;-43
2023/02/14 14:30:28;;;;;;;19.02;1.65;;;;;;;;;;5070920;28;20394;-43
2023/02/14 14:32:55;;;;;;;14.32;1.48;;;;;;;;;;5070983;28;20758;-43
2023/02/14 14:35:23;;;;;;;16.58;1.73;;;;;;;;;;5070977;28;20419;-43
2023/02/14 14:37:54;;;;;;;22.48;2.00;;;;;;;;;;5070939;28;20032;-43
2023/02/14 14:40:31;;;;;;;21.43;1.83;;;;;;;;;;5069562;28;20033;-43
2023/02/14 14:43:13;;;;;;;15.73;1.50;;;;;;;;;;5070985;28;20070;-44
2023/02/14 14:45:40;;;;;;;24.60;1.60;;;;;;;;;;5070734;28;20031;-43
2023/02/14 14:48:12;;;;;;;14.70;1.38;;;;;;;;;;5070956;28;20032;-43
2023/02/14 14:50:43;;;;;;;11.65;1.40;;;;;;;;;;5070876;28;20020;-42
2023/02/14 14:53:20;;;;;;;10.40;1.15;;;;;;;;;;5070899;28;20035;-43
2023/02/14 14:55:50;;;;;;;10.85;1.33;;;;;;;;;;5070749;28;20048;-42
2023/02/14 14:58:37;;;;;;;16.02;1.73;;;;;;;;;;5071003;28;20036;-42
2023/02/14 15:01:05;;;;;;;25.50;2.20;;;;;;;;;;5070284;28;20031;-43
2023/02/14 15:03:32;;;;;;;23.13;1.90;;;;;;;;;;5070713;28;20029;-42
2023/02/14 15:06:19;;;;;;;15.95;1.40;;;;;;;;;;5070807;28;20028;-42
2023/02/14 15:08:47;;;;;;;11.25;1.35;;;;;;;;;;5070494;28;20043;-42
2023/02/14 15:14:04;;;;;;;20.70;1.95;;;;;;;;;;5070560;28;20085;-42
2023/02/14 15:16:51;;;;;;;18.65;2.42;;;;;;;;;;5070720;28;20429;-42